sensor_id;sensor_type;location;lat;lon;timestamp;temperature;humidity
37432;DHT22;23292;51.300;6.252;2024-02-16T00:02:03;11.40;99.90
37432;DHT22;23292;51.300;6.252;2024-02-16T00:04:30;11.40;99.90
37432;DHT22;23292;51.300;6.252;2024-02-16T00:06:57;11.40;99.90
37432;DHT22;23292;51.300;6.252;2024-02-16T00:09:24;11.40;99.90
37432;DHT22;23292;51.300;6.252;2024-02-16T00:11:54;11.40;99.90
37432;DHT22;23292;51.300;6.252;2024-02-16T00:14:24;11.30;99.90
37432;DHT22;23292;51.300;6.252;2024-02-16T00:16:51;11.30;99.90
37432;DHT22;23292;51.300;6.252;2024-02-16T00:19:18;11.20;99.90
37432;DHT22;23292;51.300;6.252;2024-02-16T00:21:45;11.20;99.90
37432;DHT22;23292;51.300;6.252;2024-02-16T00:24:11;11.10;99.90
37432;DHT22;23292;51.300;6.252;2024-02-16T00:26:38;11.10;99.90
37432;DHT22;23292;51.300;6.252;2024-02-16T00:29:06;11.10;99.90
37432;DHT22;23292;51.300;6.252;2024-02-16T00:31:32;11.10;99.90
37432;DHT22;23292;51.300;6.252;2024-02-16T00:33:59;11.10;99.90
37432;DHT22;23292;51.300;6.252;2024-02-16T00:36:27;11.10;99.90
37432;DHT22;23292;51.300;6.252;2024-02-16T00:38:55;11.10;99.90
37432;DHT22;23292;51.300;6.252;2024-02-16T00:41:22;11.10;99.90
37432;DHT22;23292;51.300;6.252;2024-02-16T00:43:50;11.20;99.90
37432;DHT22;23292;51.300;6.252;2024-02-16T00:46:17;11.10;99.90
37432;DHT22;23292;51.300;6.252;2024-02-16T00:48:44;11.20;99.90
37432;DHT22;23292;51.300;6.252;2024-02-16T00:51:13;11.20;99.90
37432;DHT22;23292;51.300;6.252;2024-02-16T00:53:40;11.20;99.90
37432;DHT22;23292;51.300;6.252;2024-02-16T00:56:07;11.30;99.90
37432;DHT22;23292;51.300;6.252;2024-02-16T00:58:34;11.30;99.90
37432;DHT22;23292;51.300;6.252;2024-02-16T01:01:01;11.40;99.90
37432;DHT22;23292;51.300;6.252;2024-02-16T01:03:27;11.50;99.90
37432;DHT22;23292;51.300;6.252;2024-02-16T01:05:54;11.50;99.90
37432;DHT22;23292;51.300;6.252;2024-02-16T01:08:21;11.60;99.90
37432;DHT22;23292;51.300;6.252;2024-02-16T01:10:50;11.60;99.90
37432;DHT22;23292;51.300;6.252;2024-02-16T01:13:17;11.70;99.90
37432;DHT22;23292;51.300;6.252;2024-02-16T01:15:47;11.70;99.90
37432;DHT22;23292;51.300;6.252;2024-02-16T01:18:14;11.70;99.90
37432;DHT22;23292;51.300;6.252;2024-02-16T01:20:41;11.70;99.90
37432;DHT22;23292;51.300;6.252;2024-02-16T01:23:07;11.70;99.90
37432;DHT22;23292;51.300;6.252;2024-02-16T01:25:34;11.70;99.90
37432;DHT22;23292;51.300;6.252;2024-02-16T01:28:01;11.60;99.90
37432;DHT22;23292;51.300;6.252;2024-02-16T01:30:27;11.70;99.90
37432;DHT22;23292;51.300;6.252;2024-02-16T01:32:54;11.70;99.90
37432;DHT22;23292;51.300;6.252;2024-02-16T01:35:21;11.70;99.90
37432;DHT22;23292;51.300;6.252;2024-02-16T01:37:48;11.60;99.90
37432;DHT22;23292;51.300;6.252;2024-02-16T01:40:16;11.60;99.90
37432;DHT22;23292;51.300;6.252;2024-02-16T01:42:44;11.60;99.90
37432;DHT22;23292;51.300;6.252;2024-02-16T01:45:11;11.70;99.90
37432;DHT22;23292;51.300;6.252;2024-02-16T01:47:43;11.60;99.90
37432;DHT22;23292;51.300;6.252;2024-02-16T01:50:15;11.70;99.90
37432;DHT22;23292;51.300;6.252;2024-02-16T01:52:44;11.70;99.90
37432;DHT22;23292;51.300;6.252;2024-02-16T01:55:12;11.70;99.90
37432;DHT22;23292;51.300;6.252;2024-02-16T01:57:39;11.60;99.90
37432;DHT22;23292;51.300;6.252;2024-02-16T02:00:07;11.60;99.90
37432;DHT22;23292;51.300;6.252;2024-02-16T02:02:35;11.60;99.90
37432;DHT22;23292;51.300;6.252;2024-02-16T02:05:02;11.50;99.90
37432;DHT22;23292;51.300;6.252;2024-02-16T02:07:30;11.40;99.90
37432;DHT22;23292;51.300;6.252;2024-02-16T02:09:57;11.50;99.90
37432;DHT22;23292;51.300;6.252;2024-02-16T02:12:24;11.50;99.90
37432;DHT22;23292;51.300;6.252;2024-02-16T02:14:51;11.50;99.90
37432;DHT22;23292;51.300;6.252;2024-02-16T02:17:18;11.50;99.90
37432;DHT22;23292;51.300;6.252;2024-02-16T02:19:46;11.50;99.90
37432;DHT22;23292;51.300;6.252;2024-02-16T02:22:19;11.40;99.90
37432;DHT22;23292;51.300;6.252;2024-02-16T02:24:47;11.50;99.90
37432;DHT22;23292;51.300;6.252;2024-02-16T02:27:15;11.60;99.90
37432;DHT22;23292;51.300;6.252;2024-02-16T02:29:43;11.70;99.90
37432;DHT22;23292;51.300;6.252;2024-02-16T02:32:11;11.70;99.90
37432;DHT22;23292;51.300;6.252;2024-02-16T02:34:39;11.70;99.90
37432;DHT22;23292;51.300;6.252;2024-02-16T02:37:06;11.80;99.90
37432;DHT22;23292;51.300;6.252;2024-02-16T02:39:34;11.70;99.90
37432;DHT22;23292;51.300;6.252;2024-02-16T02:42:01;11.70;99.90
37432;DHT22;23292;51.300;6.252;2024-02-16T02:44:28;11.60;99.90
37432;DHT22;23292;51.300;6.252;2024-02-16T02:46:56;11.60;99.90
37432;DHT22;23292;51.300;6.252;2024-02-16T02:49:22;11.60;99.90
37432;DHT22;23292;51.300;6.252;2024-02-16T02:51:49;11.60;99.90
37432;DHT22;23292;51.300;6.252;2024-02-16T02:54:16;11.50;99.90
37432;DHT22;23292;51.300;6.252;2024-02-16T02:56:43;11.60;99.90
37432;DHT22;23292;51.300;6.252;2024-02-16T02:59:10;11.50;99.90
37432;DHT22;23292;51.300;6.252;2024-02-16T03:01:37;11.50;99.90
37432;DHT22;23292;51.300;6.252;2024-02-16T03:04:04;11.50;99.90
37432;DHT22;23292;51.300;6.252;2024-02-16T03:06:31;11.40;99.90
37432;DHT22;23292;51.300;6.252;2024-02-16T03:08:58;11.40;99.90
37432;DHT22;23292;51.300;6.252;2024-02-16T03:11:25;11.50;99.90
37432;DHT22;23292;51.300;6.252;2024-02-16T03:13:52;11.50;99.90
37432;DHT22;23292;51.300;6.252;2024-02-16T03:16:19;11.50;99.90
37432;DHT22;23292;51.300;6.252;2024-02-16T03:18:46;11.60;99.90
37432;DHT22;23292;51.300;6.252;2024-02-16T03:21:14;11.50;99.90
37432;DHT22;23292;51.300;6.252;2024-02-16T03:23:43;11.50;99.90
37432;DHT22;23292;51.300;6.252;2024-02-16T03:26:20;11.50;99.90
37432;DHT22;23292;51.300;6.252;2024-02-16T03:28:47;11.50;99.90
37432;DHT22;23292;51.300;6.252;2024-02-16T03:31:17;11.60;99.90
37432;DHT22;23292;51.300;6.252;2024-02-16T03:33:43;11.60;99.90
37432;DHT22;23292;51.300;6.252;2024-02-16T03:36:10;11.60;99.90
37432;DHT22;23292;51.300;6.252;2024-02-16T03:38:43;11.50;99.90
37432;DHT22;23292;51.300;6.252;2024-02-16T03:41:14;11.50;99.90
37432;DHT22;23292;51.300;6.252;2024-02-16T03:43:42;11.40;99.90
37432;DHT22;23292;51.300;6.252;2024-02-16T03:46:09;11.40;99.90
37432;DHT22;23292;51.300;6.252;2024-02-16T03:48:36;11.40;99.90
37432;DHT22;23292;51.300;6.252;2024-02-16T03:51:03;11.40;99.90
37432;DHT22;23292;51.300;6.252;2024-02-16T03:53:30;11.30;99.90
37432;DHT22;23292;51.300;6.252;2024-02-16T03:55:57;11.20;99.90
37432;DHT22;23292;51.300;6.252;2024-02-16T03:58:24;11.20;99.90
37432;DHT22;23292;51.300;6.252;2024-02-16T04:00:51;11.30;99.90
37432;DHT22;23292;51.300;6.252;2024-02-16T04:03:19;11.20;99.90
37432;DHT22;23292;51.300;6.252;2024-02-16T04:05:46;11.20;99.90
37432;DHT22;23292;51.300;6.252;2024-02-16T04:08:13;11.10;99.90
37432;DHT22;23292;51.300;6.252;2024-02-16T04:10:40;11.10;99.90
37432;DHT22;23292;51.300;6.252;2024-02-16T04:13:06;11.00;99.90
37432;DHT22;23292;51.300;6.252;2024-02-16T04:15:33;11.00;99.90
37432;DHT22;23292;51.300;6.252;2024-02-16T04:18:00;11.00;99.90
37432;DHT22;23292;51.300;6.252;2024-02-16T04:20:27;11.10;99.90
37432;DHT22;23292;51.300;6.252;2024-02-16T04:22:54;11.20;99.90
37432;DHT22;23292;51.300;6.252;2024-02-16T04:25:20;11.10;99.90
37432;DHT22;23292;51.300;6.252;2024-02-16T04:27:47;11.10;99.90
37432;DHT22;23292;51.300;6.252;2024-02-16T04:30:14;11.00;99.90
37432;DHT22;23292;51.300;6.252;2024-02-16T04:32:41;11.00;99.90
37432;DHT22;23292;51.300;6.252;2024-02-16T04:35:08;11.00;99.90
37432;DHT22;23292;51.300;6.252;2024-02-16T04:37:38;11.10;99.90
37432;DHT22;23292;51.300;6.252;2024-02-16T04:40:08;11.20;99.90
37432;DHT22;23292;51.300;6.252;2024-02-16T04:42:38;11.20;99.90
37432;DHT22;23292;51.300;6.252;2024-02-16T04:45:07;11.30;99.90
37432;DHT22;23292;51.300;6.252;2024-02-16T04:47:34;11.30;99.90
37432;DHT22;23292;51.300;6.252;2024-02-16T04:50:02;11.30;99.90
37432;DHT22;23292;51.300;6.252;2024-02-16T04:52:29;11.30;99.90
37432;DHT22;23292;51.300;6.252;2024-02-16T04:54:57;11.30;99.90
37432;DHT22;23292;51.300;6.252;2024-02-16T04:57:23;11.30;99.90
37432;DHT22;23292;51.300;6.252;2024-02-16T04:59:50;11.20;99.90
37432;DHT22;23292;51.300;6.252;2024-02-16T05:02:18;11.20;99.90
37432;DHT22;23292;51.300;6.252;2024-02-16T05:04:45;11.30;99.90
37432;DHT22;23292;51.300;6.252;2024-02-16T05:07:11;11.30;99.90
37432;DHT22;23292;51.300;6.252;2024-02-16T05:09:38;11.30;99.90
37432;DHT22;23292;51.300;6.252;2024-02-16T05:12:06;11.30;99.90
37432;DHT22;23292;51.300;6.252;2024-02-16T05:14:35;11.30;99.90
37432;DHT22;23292;51.300;6.252;2024-02-16T05:17:03;11.30;99.90
37432;DHT22;23292;51.300;6.252;2024-02-16T05:19:33;11.40;99.90
37432;DHT22;23292;51.300;6.252;2024-02-16T05:22:01;11.40;99.90
37432;DHT22;23292;51.300;6.252;2024-02-16T05:24:28;11.40;99.90
37432;DHT22;23292;51.300;6.252;2024-02-16T05:26:55;11.40;99.90
37432;DHT22;23292;51.300;6.252;2024-02-16T05:29:22;11.40;99.90
37432;DHT22;23292;51.300;6.252;2024-02-16T05:31:51;11.30;99.90
37432;DHT22;23292;51.300;6.252;2024-02-16T05:34:18;11.30;99.90
37432;DHT22;23292;51.300;6.252;2024-02-16T05:36:45;11.40;99.90
37432;DHT22;23292;51.300;6.252;2024-02-16T05:39:12;11.40;99.90
37432;DHT22;23292;51.300;6.252;2024-02-16T05:41:53;11.40;99.90
37432;DHT22;23292;51.300;6.252;2024-02-16T05:44:20;11.50;99.90
37432;DHT22;23292;51.300;6.252;2024-02-16T05:46:47;11.50;99.90
37432;DHT22;23292;51.300;6.252;2024-02-16T05:49:15;11.60;99.90
37432;DHT22;23292;51.300;6.252;2024-02-16T05:51:43;11.70;99.90
37432;DHT22;23292;51.300;6.252;2024-02-16T05:54:28;11.70;99.90
37432;DHT22;23292;51.300;6.252;2024-02-16T05:56:55;11.70;99.90
37432;DHT22;23292;51.300;6.252;2024-02-16T05:59:22;11.70;99.90
37432;DHT22;23292;51.300;6.252;2024-02-16T06:01:49;11.80;99.90
37432;DHT22;23292;51.300;6.252;2024-02-16T06:04:16;11.80;99.90
37432;DHT22;23292;51.300;6.252;2024-02-16T06:06:43;11.80;99.90
37432;DHT22;23292;51.300;6.252;2024-02-16T06:09:09;11.70;99.90
37432;DHT22;23292;51.300;6.252;2024-02-16T06:11:37;11.80;99.90
37432;DHT22;23292;51.300;6.252;2024-02-16T06:14:05;11.80;99.90
37432;DHT22;23292;51.300;6.252;2024-02-16T06:16:32;11.80;99.90
37432;DHT22;23292;51.300;6.252;2024-02-16T06:18:58;11.80;99.90
37432;DHT22;23292;51.300;6.252;2024-02-16T06:21:25;11.80;99.90
37432;DHT22;23292;51.300;6.252;2024-02-16T06:23:52;11.70;99.90
37432;DHT22;23292;51.300;6.252;2024-02-16T06:26:19;11.80;99.90
37432;DHT22;23292;51.300;6.252;2024-02-16T06:28:47;11.80;99.90
37432;DHT22;23292;51.300;6.252;2024-02-16T06:31:14;11.70;99.90
37432;DHT22;23292;51.300;6.252;2024-02-16T06:33:41;11.70;99.90
37432;DHT22;23292;51.300;6.252;2024-02-16T06:36:08;11.70;99.90
37432;DHT22;23292;51.300;6.252;2024-02-16T06:38:39;11.70;99.90
37432;DHT22;23292;51.300;6.252;2024-02-16T06:41:06;11.60;99.90
37432;DHT22;23292;51.300;6.252;2024-02-16T06:43:32;11.60;99.90
37432;DHT22;23292;51.300;6.252;2024-02-16T06:45:59;11.60;99.90
37432;DHT22;23292;51.300;6.252;2024-02-16T06:48:26;11.50;99.90
37432;DHT22;23292;51.300;6.252;2024-02-16T06:50:53;11.50;99.90
37432;DHT22;23292;51.300;6.252;2024-02-16T06:53:21;11.60;99.90
37432;DHT22;23292;51.300;6.252;2024-02-16T06:55:48;11.50;99.90
37432;DHT22;23292;51.300;6.252;2024-02-16T06:58:15;11.40;99.90
37432;DHT22;23292;51.300;6.252;2024-02-16T07:00:41;11.40;99.90
37432;DHT22;23292;51.300;6.252;2024-02-16T07:03:09;11.40;99.90
37432;DHT22;23292;51.300;6.252;2024-02-16T07:05:36;11.40;99.90
37432;DHT22;23292;51.300;6.252;2024-02-16T07:08:03;11.30;99.90
37432;DHT22;23292;51.300;6.252;2024-02-16T07:10:33;11.40;99.90
37432;DHT22;23292;51.300;6.252;2024-02-16T07:13:00;11.40;99.90
37432;DHT22;23292;51.300;6.252;2024-02-16T07:15:27;11.40;99.90
37432;DHT22;23292;51.300;6.252;2024-02-16T07:17:54;11.50;99.90
37432;DHT22;23292;51.300;6.252;2024-02-16T07:20:21;11.50;99.90
37432;DHT22;23292;51.300;6.252;2024-02-16T07:22:48;11.60;99.90
37432;DHT22;23292;51.300;6.252;2024-02-16T07:25:17;11.80;99.90
37432;DHT22;23292;51.300;6.252;2024-02-16T07:27:44;11.80;99.90
37432;DHT22;23292;51.300;6.252;2024-02-16T07:30:11;12.10;99.90
37432;DHT22;23292;51.300;6.252;2024-02-16T07:32:42;12.10;99.90
37432;DHT22;23292;51.300;6.252;2024-02-16T07:35:10;12.30;99.90
37432;DHT22;23292;51.300;6.252;2024-02-16T07:37:39;12.40;99.90
37432;DHT22;23292;51.300;6.252;2024-02-16T07:40:06;12.60;99.90
37432;DHT22;23292;51.300;6.252;2024-02-16T07:42:39;12.80;99.90
37432;DHT22;23292;51.300;6.252;2024-02-16T07:45:07;13.00;99.90
37432;DHT22;23292;51.300;6.252;2024-02-16T07:47:34;13.00;99.90
37432;DHT22;23292;51.300;6.252;2024-02-16T07:50:01;13.10;99.90
37432;DHT22;23292;51.300;6.252;2024-02-16T07:52:28;13.20;99.90
37432;DHT22;23292;51.300;6.252;2024-02-16T07:54:54;13.40;99.90
37432;DHT22;23292;51.300;6.252;2024-02-16T07:57:21;13.40;99.90
37432;DHT22;23292;51.300;6.252;2024-02-16T07:59:48;13.50;99.90
37432;DHT22;23292;51.300;6.252;2024-02-16T08:02:14;13.60;99.90
37432;DHT22;23292;51.300;6.252;2024-02-16T08:04:43;13.70;99.90
37432;DHT22;23292;51.300;6.252;2024-02-16T08:07:12;13.80;99.90
37432;DHT22;23292;51.300;6.252;2024-02-16T08:09:39;13.90;99.90
37432;DHT22;23292;51.300;6.252;2024-02-16T08:12:07;13.90;99.90
37432;DHT22;23292;51.300;6.252;2024-02-16T08:14:34;14.00;99.90
37432;DHT22;23292;51.300;6.252;2024-02-16T08:17:00;14.00;99.90
37432;DHT22;23292;51.300;6.252;2024-02-16T08:19:40;14.00;99.90
37432;DHT22;23292;51.300;6.252;2024-02-16T08:22:08;14.20;99.90
37432;DHT22;23292;51.300;6.252;2024-02-16T08:24:36;14.10;99.90
37432;DHT22;23292;51.300;6.252;2024-02-16T08:27:03;14.20;99.90
37432;DHT22;23292;51.300;6.252;2024-02-16T08:29:33;14.20;99.90
37432;DHT22;23292;51.300;6.252;2024-02-16T08:32:01;14.20;99.90
37432;DHT22;23292;51.300;6.252;2024-02-16T08:34:30;14.20;99.90
37432;DHT22;23292;51.300;6.252;2024-02-16T08:36:57;14.20;99.90
37432;DHT22;23292;51.300;6.252;2024-02-16T08:39:24;14.30;99.90
37432;DHT22;23292;51.300;6.252;2024-02-16T08:41:51;14.30;99.90
37432;DHT22;23292;51.300;6.252;2024-02-16T08:44:18;14.30;99.90
37432;DHT22;23292;51.300;6.252;2024-02-16T08:46:45;14.30;99.90
37432;DHT22;23292;51.300;6.252;2024-02-16T08:49:16;14.30;99.90
37432;DHT22;23292;51.300;6.252;2024-02-16T08:51:43;14.50;99.90
37432;DHT22;23292;51.300;6.252;2024-02-16T08:54:10;14.40;99.90
37432;DHT22;23292;51.300;6.252;2024-02-16T08:56:37;14.40;99.90
37432;DHT22;23292;51.300;6.252;2024-02-16T08:59:06;14.40;99.90
37432;DHT22;23292;51.300;6.252;2024-02-16T09:01:33;14.50;99.90
37432;DHT22;23292;51.300;6.252;2024-02-16T09:04:01;14.50;99.90
37432;DHT22;23292;51.300;6.252;2024-02-16T09:06:29;14.50;99.90
37432;DHT22;23292;51.300;6.252;2024-02-16T09:08:56;14.60;99.90
37432;DHT22;23292;51.300;6.252;2024-02-16T09:11:23;14.60;99.90
37432;DHT22;23292;51.300;6.252;2024-02-16T09:13:50;14.80;99.90
37432;DHT22;23292;51.300;6.252;2024-02-16T09:16:17;14.80;99.90
37432;DHT22;23292;51.300;6.252;2024-02-16T09:18:47;14.80;99.90
37432;DHT22;23292;51.300;6.252;2024-02-16T09:21:18;14.80;99.90
37432;DHT22;23292;51.300;6.252;2024-02-16T09:23:46;14.90;99.90
37432;DHT22;23292;51.300;6.252;2024-02-16T09:26:13;15.10;99.90
37432;DHT22;23292;51.300;6.252;2024-02-16T09:28:40;15.10;99.90
37432;DHT22;23292;51.300;6.252;2024-02-16T09:31:14;15.10;99.90
37432;DHT22;23292;51.300;6.252;2024-02-16T09:33:41;15.10;99.90
37432;DHT22;23292;51.300;6.252;2024-02-16T09:36:08;15.10;99.90
37432;DHT22;23292;51.300;6.252;2024-02-16T09:38:36;15.10;99.90
37432;DHT22;23292;51.300;6.252;2024-02-16T09:41:03;15.10;99.90
37432;DHT22;23292;51.300;6.252;2024-02-16T09:43:30;15.00;99.90
37432;DHT22;23292;51.300;6.252;2024-02-16T09:45:58;15.10;99.90
37432;DHT22;23292;51.300;6.252;2024-02-16T09:48:27;15.10;99.90
37432;DHT22;23292;51.300;6.252;2024-02-16T09:50:56;15.20;99.90
37432;DHT22;23292;51.300;6.252;2024-02-16T09:53:28;15.20;99.90
37432;DHT22;23292;51.300;6.252;2024-02-16T09:55:55;15.20;99.90
37432;DHT22;23292;51.300;6.252;2024-02-16T09:58:22;15.20;99.90
37432;DHT22;23292;51.300;6.252;2024-02-16T10:00:53;15.20;99.90
37432;DHT22;23292;51.300;6.252;2024-02-16T10:03:25;15.10;99.90
37432;DHT22;23292;51.300;6.252;2024-02-16T10:06:03;15.10;99.90
37432;DHT22;23292;51.300;6.252;2024-02-16T10:08:30;15.10;99.90
37432;DHT22;23292;51.300;6.252;2024-02-16T10:11:04;15.10;99.90
37432;DHT22;23292;51.300;6.252;2024-02-16T10:13:31;15.10;99.90
37432;DHT22;23292;51.300;6.252;2024-02-16T10:16:09;15.10;99.90
37432;DHT22;23292;51.300;6.252;2024-02-16T10:18:36;15.20;99.90
37432;DHT22;23292;51.300;6.252;2024-02-16T10:21:04;15.20;99.90
37432;DHT22;23292;51.300;6.252;2024-02-16T10:23:33;15.20;99.90
37432;DHT22;23292;51.300;6.252;2024-02-16T10:26:09;15.40;99.90
37432;DHT22;23292;51.300;6.252;2024-02-16T10:28:36;15.40;99.90
37432;DHT22;23292;51.300;6.252;2024-02-16T10:31:04;15.40;99.90
37432;DHT22;23292;51.300;6.252;2024-02-16T10:33:32;15.40;99.90
37432;DHT22;23292;51.300;6.252;2024-02-16T10:36:00;15.40;99.90
37432;DHT22;23292;51.300;6.252;2024-02-16T10:38:29;15.40;99.90
37432;DHT22;23292;51.300;6.252;2024-02-16T10:40:57;15.40;99.90
37432;DHT22;23292;51.300;6.252;2024-02-16T10:43:27;15.40;99.90
37432;DHT22;23292;51.300;6.252;2024-02-16T10:45:57;15.40;99.90
37432;DHT22;23292;51.300;6.252;2024-02-16T10:48:24;15.40;99.90
37432;DHT22;23292;51.300;6.252;2024-02-16T10:50:52;15.40;99.90
37432;DHT22;23292;51.300;6.252;2024-02-16T10:53:27;15.40;99.90
37432;DHT22;23292;51.300;6.252;2024-02-16T10:56:00;15.40;99.90
37432;DHT22;23292;51.300;6.252;2024-02-16T10:58:28;15.30;99.90
37432;DHT22;23292;51.300;6.252;2024-02-16T11:00:56;15.30;99.90
37432;DHT22;23292;51.300;6.252;2024-02-16T11:03:25;15.20;99.90
37432;DHT22;23292;51.300;6.252;2024-02-16T11:05:54;15.30;99.90
37432;DHT22;23292;51.300;6.252;2024-02-16T11:08:23;15.30;99.90
37432;DHT22;23292;51.300;6.252;2024-02-16T11:10:57;15.30;99.90
37432;DHT22;23292;51.300;6.252;2024-02-16T11:13:26;15.20;99.90
37432;DHT22;23292;51.300;6.252;2024-02-16T11:16:01;15.30;99.90
37432;DHT22;23292;51.300;6.252;2024-02-16T11:18:29;15.40;99.90
37432;DHT22;23292;51.300;6.252;2024-02-16T11:21:00;15.40;99.90
37432;DHT22;23292;51.300;6.252;2024-02-16T11:23:29;15.40;99.90
37432;DHT22;23292;51.300;6.252;2024-02-16T11:26:06;15.30;99.90
37432;DHT22;23292;51.300;6.252;2024-02-16T11:28:41;15.20;99.90
37432;DHT22;23292;51.300;6.252;2024-02-16T11:31:08;15.30;99.90
37432;DHT22;23292;51.300;6.252;2024-02-16T11:33:35;15.30;99.90
37432;DHT22;23292;51.300;6.252;2024-02-16T11:36:04;15.30;99.90
37432;DHT22;23292;51.300;6.252;2024-02-16T11:38:32;15.30;99.90
37432;DHT22;23292;51.300;6.252;2024-02-16T11:41:06;15.30;99.90
37432;DHT22;23292;51.300;6.252;2024-02-16T11:43:34;15.30;99.90
37432;DHT22;23292;51.300;6.252;2024-02-16T11:46:14;15.40;99.90
37432;DHT22;23292;51.300;6.252;2024-02-16T11:48:41;15.30;99.90
37432;DHT22;23292;51.300;6.252;2024-02-16T11:51:09;15.30;99.90
37432;DHT22;23292;51.300;6.252;2024-02-16T11:53:36;15.20;99.90
37432;DHT22;23292;51.300;6.252;2024-02-16T11:56:02;15.20;99.90
37432;DHT22;23292;51.300;6.252;2024-02-16T11:58:30;15.10;99.90
37432;DHT22;23292;51.300;6.252;2024-02-16T12:00:56;15.10;99.90
37432;DHT22;23292;51.300;6.252;2024-02-16T12:03:29;15.00;99.90
37432;DHT22;23292;51.300;6.252;2024-02-16T12:05:58;15.10;99.90
37432;DHT22;23292;51.300;6.252;2024-02-16T12:08:33;15.00;99.90
37432;DHT22;23292;51.300;6.252;2024-02-16T12:11:00;15.00;99.90
37432;DHT22;23292;51.300;6.252;2024-02-16T12:13:28;15.00;99.90
37432;DHT22;23292;51.300;6.252;2024-02-16T12:15:55;15.10;99.90
37432;DHT22;23292;51.300;6.252;2024-02-16T12:18:26;15.10;99.90
37432;DHT22;23292;51.300;6.252;2024-02-16T12:21:02;15.10;99.90
37432;DHT22;23292;51.300;6.252;2024-02-16T12:23:29;15.20;99.90
37432;DHT22;23292;51.300;6.252;2024-02-16T12:26:00;15.20;99.90
37432;DHT22;23292;51.300;6.252;2024-02-16T12:28:31;15.20;99.90
37432;DHT22;23292;51.300;6.252;2024-02-16T12:31:00;15.20;99.90
37432;DHT22;23292;51.300;6.252;2024-02-16T12:33:30;15.10;99.90
37432;DHT22;23292;51.300;6.252;2024-02-16T12:35:57;15.10;99.90
37432;DHT22;23292;51.300;6.252;2024-02-16T12:38:24;15.00;99.90
37432;DHT22;23292;51.300;6.252;2024-02-16T12:40:51;15.00;99.90
37432;DHT22;23292;51.300;6.252;2024-02-16T12:43:17;14.90;99.90
37432;DHT22;23292;51.300;6.252;2024-02-16T12:45:46;14.90;99.90
37432;DHT22;23292;51.300;6.252;2024-02-16T12:48:13;14.90;99.90
37432;DHT22;23292;51.300;6.252;2024-02-16T12:50:41;14.80;99.90
37432;DHT22;23292;51.300;6.252;2024-02-16T12:53:09;14.80;99.90
37432;DHT22;23292;51.300;6.252;2024-02-16T12:55:36;14.70;99.90
37432;DHT22;23292;51.300;6.252;2024-02-16T12:58:03;14.70;99.90
37432;DHT22;23292;51.300;6.252;2024-02-16T13:00:30;14.70;99.90
37432;DHT22;23292;51.300;6.252;2024-02-16T13:02:56;14.60;99.90
37432;DHT22;23292;51.300;6.252;2024-02-16T13:05:23;14.60;99.90
37432;DHT22;23292;51.300;6.252;2024-02-16T13:07:50;14.50;99.90
37432;DHT22;23292;51.300;6.252;2024-02-16T13:10:17;14.50;99.90
37432;DHT22;23292;51.300;6.252;2024-02-16T13:12:44;14.50;99.90
37432;DHT22;23292;51.300;6.252;2024-02-16T13:15:11;14.40;99.90
37432;DHT22;23292;51.300;6.252;2024-02-16T13:17:53;14.30;99.90
37432;DHT22;23292;51.300;6.252;2024-02-16T13:20:21;14.20;99.90
37432;DHT22;23292;51.300;6.252;2024-02-16T13:22:47;14.10;99.90
37432;DHT22;23292;51.300;6.252;2024-02-16T13:25:15;14.00;99.90
37432;DHT22;23292;51.300;6.252;2024-02-16T13:27:42;14.00;99.90
37432;DHT22;23292;51.300;6.252;2024-02-16T13:30:09;14.10;99.90
37432;DHT22;23292;51.300;6.252;2024-02-16T13:32:36;14.00;99.90
37432;DHT22;23292;51.300;6.252;2024-02-16T13:35:07;13.90;99.90
37432;DHT22;23292;51.300;6.252;2024-02-16T13:37:33;13.90;99.90
37432;DHT22;23292;51.300;6.252;2024-02-16T13:40:00;13.80;99.90
37432;DHT22;23292;51.300;6.252;2024-02-16T13:42:30;13.80;99.90
37432;DHT22;23292;51.300;6.252;2024-02-16T13:44:58;13.80;99.90
37432;DHT22;23292;51.300;6.252;2024-02-16T13:47:25;13.80;99.90
37432;DHT22;23292;51.300;6.252;2024-02-16T13:49:51;13.70;99.90
37432;DHT22;23292;51.300;6.252;2024-02-16T13:52:19;13.70;99.90
37432;DHT22;23292;51.300;6.252;2024-02-16T13:54:46;13.70;99.90
37432;DHT22;23292;51.300;6.252;2024-02-16T13:57:13;13.70;99.90
37432;DHT22;23292;51.300;6.252;2024-02-16T13:59:40;13.70;99.90
37432;DHT22;23292;51.300;6.252;2024-02-16T14:02:08;13.70;99.90
37432;DHT22;23292;51.300;6.252;2024-02-16T14:04:35;13.60;99.90
37432;DHT22;23292;51.300;6.252;2024-02-16T14:07:06;13.60;99.90
37432;DHT22;23292;51.300;6.252;2024-02-16T14:09:33;13.50;99.90
37432;DHT22;23292;51.300;6.252;2024-02-16T14:12:00;13.40;99.90
37432;DHT22;23292;51.300;6.252;2024-02-16T14:14:27;13.40;99.90
37432;DHT22;23292;51.300;6.252;2024-02-16T14:17:04;13.30;99.90
37432;DHT22;23292;51.300;6.252;2024-02-16T14:19:31;13.30;99.90
37432;DHT22;23292;51.300;6.252;2024-02-16T14:22:01;13.30;99.90
37432;DHT22;23292;51.300;6.252;2024-02-16T14:24:28;13.40;99.90
37432;DHT22;23292;51.300;6.252;2024-02-16T14:26:55;13.40;99.90
37432;DHT22;23292;51.300;6.252;2024-02-16T14:29:22;13.40;99.90
37432;DHT22;23292;51.300;6.252;2024-02-16T14:31:49;13.40;99.90
37432;DHT22;23292;51.300;6.252;2024-02-16T14:34:16;13.40;99.90
37432;DHT22;23292;51.300;6.252;2024-02-16T14:36:44;13.30;99.90
37432;DHT22;23292;51.300;6.252;2024-02-16T14:39:10;13.30;99.90
37432;DHT22;23292;51.300;6.252;2024-02-16T14:41:38;13.20;99.90
37432;DHT22;23292;51.300;6.252;2024-02-16T14:44:05;13.20;99.90
37432;DHT22;23292;51.300;6.252;2024-02-16T14:46:32;13.30;99.90
37432;DHT22;23292;51.300;6.252;2024-02-16T14:48:59;13.30;99.90
37432;DHT22;23292;51.300;6.252;2024-02-16T14:51:26;13.20;99.90
37432;DHT22;23292;51.300;6.252;2024-02-16T14:53:53;13.20;99.90
37432;DHT22;23292;51.300;6.252;2024-02-16T14:56:20;13.10;99.90
37432;DHT22;23292;51.300;6.252;2024-02-16T14:58:48;13.20;99.90
37432;DHT22;23292;51.300;6.252;2024-02-16T15:01:15;13.20;99.90
37432;DHT22;23292;51.300;6.252;2024-02-16T15:03:43;13.20;99.90
37432;DHT22;23292;51.300;6.252;2024-02-16T15:06:10;13.20;99.90
37432;DHT22;23292;51.300;6.252;2024-02-16T15:08:36;13.20;99.90
37432;DHT22;23292;51.300;6.252;2024-02-16T15:11:03;13.20;99.90
37432;DHT22;23292;51.300;6.252;2024-02-16T15:13:30;13.20;99.90
37432;DHT22;23292;51.300;6.252;2024-02-16T15:15:58;13.20;99.90
37432;DHT22;23292;51.300;6.252;2024-02-16T15:18:25;13.20;99.90
37432;DHT22;23292;51.300;6.252;2024-02-16T15:20:52;13.20;99.90
37432;DHT22;23292;51.300;6.252;2024-02-16T15:23:21;13.20;99.90
37432;DHT22;23292;51.300;6.252;2024-02-16T15:25:48;13.20;99.90
37432;DHT22;23292;51.300;6.252;2024-02-16T15:28:15;13.20;99.90
37432;DHT22;23292;51.300;6.252;2024-02-16T15:30:42;13.10;99.90
37432;DHT22;23292;51.300;6.252;2024-02-16T15:33:10;13.10;99.90
37432;DHT22;23292;51.300;6.252;2024-02-16T15:35:36;13.10;99.90